createdAt,value
2023-04-10T00:02:27.261Z,42.73
2023-04-10T00:04:55.308Z,38.20
2023-04-10T00:07:23.234Z,43.57
2023-04-10T00:09:51.056Z,40.33
2023-04-10T00:12:18.856Z,37.83
2023-04-10T00:14:46.671Z,41.30
2023-04-10T00:17:14.426Z,36.50
2023-04-10T00:19:44.061Z,37.20
2023-04-10T00:22:11.905Z,36.40
2023-04-10T00:24:39.725Z,35.60
2023-04-10T00:27:07.745Z,40.70
2023-04-10T00:29:35.523Z,35.47
2023-04-10T00:32:03.463Z,38.93
2023-04-10T00:34:31.649Z,36.53
2023-04-10T00:37:01.244Z,39.10
2023-04-10T00:39:29.302Z,38.60
2023-04-10T00:41:57.616Z,35.33
2023-04-10T00:44:25.686Z,37.67
2023-04-10T00:46:53.703Z,37.93
2023-04-10T00:49:21.912Z,43.23
2023-04-10T00:51:49.710Z,37.20
2023-04-10T00:54:19.512Z,37.00
2023-04-10T00:56:48.083Z,43.50
2023-04-10T00:59:15.884Z,54.23
2023-04-10T01:01:44.721Z,43.00
2023-04-10T01:04:14.487Z,42.20
2023-04-10T01:06:54.516Z,40.97
2023-04-10T01:09:35.602Z,41.80
2023-04-10T01:12:12.385Z,40.90
2023-04-10T01:14:48.372Z,40.03
2023-04-10T01:17:19.760Z,38.33
2023-04-10T01:20:01.163Z,44.07
2023-04-10T01:22:35.910Z,40.63
2023-04-10T01:25:20.855Z,43.77
2023-04-10T01:28:01.057Z,37.80
2023-04-10T01:30:31.289Z,37.97
2023-04-10T01:33:01.038Z,44.03
2023-04-10T01:35:30.135Z,59.97
2023-04-10T01:37:59.048Z,42.93
2023-04-10T01:40:27.933Z,38.03
2023-04-10T01:42:57.518Z,36.83
2023-04-10T01:45:34.791Z,37.33
2023-04-10T01:48:02.940Z,42.60
2023-04-10T01:50:31.389Z,38.63
2023-04-10T01:53:00.293Z,41.90
2023-04-10T01:55:29.288Z,41.90
2023-04-10T01:58:03.130Z,36.00
2023-04-10T02:00:31.283Z,36.03
2023-04-10T02:03:00.762Z,38.80
2023-04-10T02:05:34.569Z,41.83
2023-04-10T02:08:06.877Z,42.20
2023-04-10T02:10:40.492Z,39.90
2023-04-10T02:13:09.552Z,39.30
2023-04-10T02:15:38.093Z,39.33
2023-04-10T02:18:08.296Z,39.13
2023-04-10T02:20:36.225Z,36.67
2023-04-10T02:23:05.534Z,42.57
2023-04-10T02:25:34.002Z,36.57
2023-04-10T02:28:05.257Z,38.50
2023-04-10T02:30:33.910Z,38.60
2023-04-10T02:33:02.088Z,40.70
2023-04-10T02:35:34.305Z,42.53
2023-04-10T02:38:04.347Z,37.00
2023-04-10T02:40:36.312Z,40.37
2023-04-10T02:43:15.033Z,37.70
2023-04-10T02:45:43.800Z,47.10
2023-04-10T02:48:14.779Z,34.90
2023-04-10T02:50:46.669Z,42.03
2023-04-10T02:53:15.468Z,45.30
2023-04-10T02:55:43.302Z,37.93
2023-04-10T02:58:13.185Z,43.83
2023-04-10T03:00:42.773Z,40.23
2023-04-10T03:03:16.601Z,35.97
2023-04-10T03:05:50.497Z,49.43
2023-04-10T03:08:23.958Z,41.60
2023-04-10T03:10:51.815Z,39.00
2023-04-10T03:13:19.787Z,39.67
2023-04-10T03:15:47.982Z,37.97
2023-04-10T03:18:15.911Z,41.33
2023-04-10T03:20:45.799Z,36.90
2023-04-10T03:23:14.993Z,35.60
2023-04-10T03:25:43.407Z,52.30
2023-04-10T03:28:12.201Z,44.93
2023-04-10T03:30:40.003Z,67.97
2023-04-10T03:33:07.732Z,42.13
2023-04-10T03:35:35.368Z,36.33
2023-04-10T03:38:03.454Z,37.17
2023-04-10T03:40:34.176Z,39.77
2023-04-10T03:43:01.921Z,38.73
2023-04-10T03:45:32.251Z,40.20
2023-04-10T03:48:01.177Z,41.20
2023-04-10T03:50:38.284Z,42.43
2023-04-10T03:53:06.664Z,43.40
2023-04-10T03:55:36.919Z,37.37
2023-04-10T03:58:05.627Z,37.80
2023-04-10T04:00:33.983Z,37.70
2023-04-10T04:03:20.733Z,37.80
2023-04-10T04:06:03.448Z,36.30
2023-04-10T04:08:38.631Z,39.83
2023-04-10T04:11:13.569Z,38.80
2023-04-10T04:13:55.336Z,43.17
2023-04-10T04:16:49.678Z,39.73
2023-04-10T04:19:31.799Z,43.17
2023-04-10T04:22:34.630Z,47.70
2023-04-10T04:25:14.628Z,43.27
2023-04-10T04:28:05.778Z,39.83
2023-04-10T04:30:38.771Z,38.70
2023-04-10T04:33:22.992Z,37.70
2023-04-10T04:35:57.624Z,40.60
2023-04-10T04:38:40.364Z,35.80
2023-04-10T04:41:26.736Z,44.47
2023-04-10T04:44:25.085Z,41.27
2023-04-10T04:47:04.269Z,40.97
2023-04-10T04:49:42.095Z,41.97
2023-04-10T04:52:20.560Z,38.27
2023-04-10T04:55:02.981Z,39.90
2023-04-10T04:57:49.521Z,38.27
2023-04-10T05:00:41.939Z,38.67
2023-04-10T05:03:36.411Z,38.90
2023-04-10T05:06:22.354Z,37.03
2023-04-10T05:09:08.714Z,36.90
2023-04-10T05:12:03.856Z,37.43
2023-04-10T05:15:10.804Z,45.83
2023-04-10T05:17:58.377Z,36.70
2023-04-10T05:20:44.574Z,37.67
2023-04-10T05:23:12.408Z,35.63
2023-04-10T05:25:56.916Z,37.97
2023-04-10T05:28:49.801Z,36.00
2023-04-10T05:31:35.524Z,37.03
2023-04-10T05:34:17.048Z,40.47
2023-04-10T05:37:08.873Z,39.73
2023-04-10T05:40:00.248Z,31.30
2023-04-10T05:42:27.872Z,39.20
2023-04-10T05:45:15.255Z,36.20
2023-04-10T05:48:06.433Z,35.27
2023-04-10T05:50:58.510Z,34.90
2023-04-10T05:53:52.135Z,34.73
2023-04-10T05:56:38.168Z,35.17
2023-04-10T05:59:21.871Z,34.63
2023-04-10T06:02:20.187Z,33.70
2023-04-10T06:04:48.420Z,33.10
2023-04-10T06:07:17.789Z,35.80
2023-04-10T06:09:45.318Z,34.27
2023-04-10T06:12:12.876Z,28.93
2023-04-10T06:14:41.715Z,37.73
2023-04-10T06:17:09.436Z,31.37
2023-04-10T06:19:37.038Z,33.47
2023-04-10T06:22:04.643Z,35.30
2023-04-10T06:24:33.714Z,38.83
2023-04-10T06:27:01.631Z,34.40
2023-04-10T06:29:29.217Z,31.77
2023-04-10T06:31:57.673Z,34.00
2023-04-10T06:34:25.419Z,30.70
2023-04-10T06:37:02.002Z,33.87
2023-04-10T06:39:29.588Z,31.30
2023-04-10T06:41:58.439Z,37.10
2023-04-10T06:44:40.322Z,31.63
2023-04-10T06:47:09.080Z,30.10
2023-04-10T06:49:36.693Z,28.80
2023-04-10T06:52:04.464Z,34.70
2023-04-10T06:54:31.993Z,29.60
2023-04-10T06:57:01.929Z,32.17
2023-04-10T06:59:29.647Z,32.53
2023-04-10T07:01:57.183Z,30.83
2023-04-10T07:04:24.946Z,30.90
2023-04-10T07:06:53.589Z,31.13
2023-04-10T07:09:21.206Z,27.90
2023-04-10T07:11:49.198Z,31.73
2023-04-10T07:14:18.167Z,32.00
2023-04-10T07:16:46.019Z,31.20
2023-04-10T07:19:13.676Z,29.17
2023-04-10T07:21:41.795Z,34.33
2023-04-10T07:24:09.407Z,37.60
2023-04-10T07:26:36.929Z,31.40
2023-04-10T07:29:04.476Z,30.73
2023-04-10T07:31:33.458Z,27.47
2023-04-10T07:34:01.041Z,27.97
2023-04-10T07:36:28.738Z,30.63
2023-04-10T07:38:56.588Z,29.90
2023-04-10T07:41:24.235Z,27.80
2023-04-10T07:43:51.863Z,30.13
2023-04-10T07:46:19.552Z,28.50
2023-04-10T07:48:49.516Z,28.70
2023-04-10T07:51:17.089Z,27.10
2023-04-10T07:53:44.644Z,32.57
2023-04-10T07:56:17.149Z,28.47
2023-04-10T07:58:44.804Z,29.53
2023-04-10T08:01:12.492Z,28.67
2023-04-10T08:03:41.399Z,26.57
2023-04-10T08:06:16.604Z,25.73
2023-04-10T08:08:44.218Z,24.40
2023-04-10T08:11:24.654Z,29.80
2023-04-10T08:13:52.502Z,26.13
2023-04-10T08:16:23.405Z,27.47
2023-04-10T08:18:51.661Z,25.33
2023-04-10T08:21:20.860Z,25.50
2023-04-10T08:23:48.472Z,24.17
2023-04-10T08:26:16.074Z,26.03
2023-04-10T08:28:47.117Z,23.03
2023-04-10T08:31:14.798Z,24.90
2023-04-10T08:33:42.643Z,26.27
2023-04-10T08:36:10.486Z,24.37
2023-04-10T08:38:39.791Z,20.70
2023-04-10T08:41:07.764Z,22.53
2023-04-10T08:43:35.532Z,24.37
2023-04-10T08:46:03.336Z,23.47
2023-04-10T08:48:33.441Z,24.53
2023-04-10T08:51:02.464Z,24.67
2023-04-10T08:53:32.375Z,22.97
2023-04-10T08:56:03.919Z,21.70
2023-04-10T08:58:32.097Z,20.67
2023-04-10T09:01:00.218Z,19.43
2023-04-10T09:03:28.558Z,19.87
2023-04-10T09:05:56.440Z,21.37
2023-04-10T09:08:23.905Z,21.50
2023-04-10T09:10:53.923Z,22.27
2023-04-10T09:13:38.770Z,25.43
2023-04-10T09:16:07.143Z,23.73
2023-04-10T09:18:42.663Z,22.00
2023-04-10T09:21:11.671Z,21.43
2023-04-10T09:23:39.243Z,21.30
2023-04-10T09:26:23.786Z,20.20
2023-04-10T09:28:58.959Z,21.17
2023-04-10T09:31:34.777Z,19.27
2023-04-10T09:34:10.089Z,21.07
2023-04-10T09:36:38.368Z,18.60
2023-04-10T09:39:06.846Z,18.40
2023-04-10T09:41:34.643Z,19.17
2023-04-10T09:44:10.707Z,19.10
2023-04-10T09:46:38.372Z,18.43
2023-04-10T09:49:07.324Z,21.27
2023-04-10T09:51:36.591Z,16.77
2023-04-10T09:54:05.048Z,18.03
2023-04-10T09:56:35.381Z,17.50
2023-04-10T09:59:04.721Z,15.20
2023-04-10T10:01:35.228Z,16.40
2023-04-10T10:04:04.361Z,17.73
2023-04-10T10:06:33.027Z,18.20
2023-04-10T10:09:03.713Z,14.07
2023-04-10T10:11:32.330Z,13.47
2023-04-10T10:14:01.259Z,13.80
2023-04-10T10:16:32.010Z,12.60
2023-04-10T10:19:07.040Z,13.10
2023-04-10T10:21:35.073Z,22.87
2023-04-10T10:24:04.151Z,15.30
2023-04-10T10:26:34.762Z,15.93
2023-04-10T10:29:04.561Z,14.17
2023-04-10T10:31:33.975Z,16.40
2023-04-10T10:34:04.757Z,17.70
2023-04-10T10:36:33.150Z,14.67
2023-04-10T10:39:12.418Z,17.50
2023-04-10T10:41:44.788Z,13.50
2023-04-10T10:44:16.745Z,14.13
2023-04-10T10:46:45.906Z,12.00
2023-04-10T10:49:14.761Z,11.80
2023-04-10T10:51:47.690Z,11.43
2023-04-10T10:54:32.213Z,11.50
2023-04-10T10:56:59.901Z,10.13
2023-04-10T10:59:56.514Z,10.10
2023-04-10T11:02:24.502Z,9.80
2023-04-10T11:04:53.496Z,9.47
2023-04-10T11:07:21.636Z,9.20
2023-04-10T11:09:51.398Z,11.20
2023-04-10T11:12:22.213Z,9.53
2023-04-10T11:15:00.515Z,8.90
2023-04-10T11:17:49.995Z,10.53
2023-04-10T11:20:21.732Z,11.53
2023-04-10T11:23:10.997Z,10.37
2023-04-10T11:25:49.234Z,9.83
2023-04-10T11:28:35.496Z,9.63
2023-04-10T11:31:15.653Z,10.70
2023-04-10T11:33:43.471Z,10.20
2023-04-10T11:36:15.104Z,9.77
2023-04-10T11:38:42.677Z,11.80
2023-04-10T11:41:10.352Z,8.37
2023-04-10T11:43:37.915Z,8.90
2023-04-10T11:46:08.002Z,8.83
2023-04-10T11:48:36.801Z,8.37
2023-04-10T11:51:13.546Z,8.47
2023-04-10T11:53:41.417Z,11.93
2023-04-10T11:56:20.304Z,11.23
2023-04-10T11:58:50.136Z,9.70
2023-04-10T12:01:17.922Z,8.60
2023-04-10T12:03:46.129Z,10.80
2023-04-10T12:06:16.148Z,7.10
2023-04-10T12:08:46.154Z,9.30
2023-04-10T12:11:14.426Z,12.50
2023-04-10T12:13:41.936Z,8.20
2023-04-10T12:16:11.042Z,6.97
2023-04-10T12:18:39.298Z,8.07
2023-04-10T12:21:08.633Z,8.13
2023-04-10T12:23:40.090Z,7.40
2023-04-10T12:26:11.729Z,7.87
2023-04-10T12:28:40.566Z,8.03
2023-04-10T12:31:08.745Z,8.70
2023-04-10T12:33:36.797Z,9.57
2023-04-10T12:36:04.714Z,7.07
2023-04-10T12:38:45.031Z,8.70
2023-04-10T12:41:13.018Z,9.23
2023-04-10T12:43:41.899Z,8.80
2023-04-10T12:46:10.824Z,7.50
2023-04-10T12:48:38.442Z,7.83
2023-04-10T12:51:06.219Z,12.20
2023-04-10T12:53:45.662Z,7.57
2023-04-10T12:56:14.621Z,6.13
2023-04-10T12:58:42.631Z,9.07
2023-04-10T13:01:10.571Z,6.83
2023-04-10T13:03:38.707Z,8.13
2023-04-10T13:06:07.897Z,6.27
2023-04-10T13:08:35.435Z,5.57
2023-04-10T13:11:04.489Z,6.90
2023-04-10T13:13:32.612Z,7.57
2023-04-10T13:16:00.473Z,8.60
2023-04-10T13:18:28.078Z,8.40
2023-04-10T13:20:55.583Z,5.97
2023-04-10T13:23:23.112Z,8.47
2023-04-10T13:25:51.016Z,5.90
2023-04-10T13:28:21.441Z,7.60
2023-04-10T13:30:49.015Z,6.37
2023-04-10T13:33:16.502Z,6.27
2023-04-10T13:35:44.031Z,5.97
2023-04-10T13:38:12.205Z,5.63
2023-04-10T13:40:39.709Z,5.33
2023-04-10T13:43:07.203Z,7.10
2023-04-10T13:45:36.083Z,6.73
2023-04-10T13:48:03.852Z,6.00
2023-04-10T13:50:31.467Z,5.97
2023-04-10T13:52:58.930Z,5.60
2023-04-10T13:55:26.496Z,7.50
2023-04-10T13:57:53.966Z,6.73
2023-04-10T14:00:22.025Z,6.97
2023-04-10T14:02:51.478Z,8.10
2023-04-10T14:05:19.338Z,6.20
2023-04-10T14:07:46.812Z,8.10
2023-04-10T14:10:14.315Z,9.60
2023-04-10T14:12:41.807Z,8.07
2023-04-10T14:15:10.284Z,8.10
2023-04-10T14:17:37.809Z,9.03
2023-04-10T14:20:11.185Z,9.20
2023-04-10T14:22:38.704Z,9.73
2023-04-10T14:25:12.960Z,8.57
2023-04-10T14:27:41.777Z,7.33
2023-04-10T14:30:10.177Z,9.87
2023-04-10T14:32:37.777Z,15.00
2023-04-10T14:35:07.888Z,7.20
2023-04-10T14:37:35.500Z,7.20
2023-04-10T14:40:04.782Z,10.03
2023-04-10T14:42:32.356Z,43.10
2023-04-10T14:44:59.913Z,12.17
2023-04-10T14:47:27.497Z,9.07
2023-04-10T14:49:55.071Z,13.53
2023-04-10T14:52:24.085Z,12.90
2023-04-10T14:54:51.643Z,8.50
2023-04-10T14:57:19.237Z,12.27
2023-04-10T14:59:46.727Z,16.23
2023-04-10T15:02:14.245Z,7.07
2023-04-10T15:04:41.860Z,9.13
2023-04-10T15:07:09.748Z,8.23
2023-04-10T15:09:38.621Z,7.30
2023-04-10T15:12:06.347Z,7.77
2023-04-10T15:14:33.972Z,6.47
2023-04-10T15:17:01.569Z,7.50
2023-04-10T15:19:29.272Z,6.43
2023-04-10T15:21:56.972Z,9.53
2023-04-10T15:24:24.491Z,10.03
2023-04-10T15:26:53.870Z,6.23
2023-04-10T15:29:21.351Z,10.50
2023-04-10T15:31:51.022Z,8.17
2023-04-10T15:34:19.010Z,5.93
2023-04-10T15:36:46.817Z,12.77
2023-04-10T15:39:14.277Z,6.63
2023-04-10T15:41:41.802Z,7.43
2023-04-10T15:44:10.642Z,9.67
2023-04-10T15:46:38.140Z,8.70
2023-04-10T15:49:05.887Z,6.83
2023-04-10T15:51:33.342Z,6.93
2023-04-10T15:54:03.036Z,7.50
2023-04-10T15:56:30.534Z,6.37
2023-04-10T15:58:58.049Z,11.23
2023-04-10T16:01:26.912Z,8.97
2023-04-10T16:03:54.727Z,8.63
2023-04-10T16:06:25.744Z,9.10
2023-04-10T16:08:53.627Z,6.90
2023-04-10T16:11:21.377Z,7.60
2023-04-10T16:13:49.049Z,6.30
2023-04-10T16:16:17.024Z,6.90
2023-04-10T16:18:46.457Z,7.50
2023-04-10T16:21:14.926Z,5.20
2023-04-10T16:23:42.407Z,6.33
2023-04-10T16:26:10.186Z,7.33
2023-04-10T16:28:37.647Z,8.63
2023-04-10T16:31:05.493Z,12.93
2023-04-10T16:33:33.023Z,8.47
2023-04-10T16:36:04.518Z,7.30
2023-04-10T16:38:34.295Z,8.80
2023-04-10T16:41:02.886Z,10.15
2023-04-10T16:43:30.442Z,8.67
2023-04-10T16:45:59.207Z,8.57
2023-04-10T16:48:26.853Z,8.40
2023-04-10T16:50:54.361Z,9.00
2023-04-10T16:53:23.242Z,7.13
2023-04-10T16:55:57.615Z,10.60
2023-04-10T16:58:25.244Z,8.60
2023-04-10T17:00:52.981Z,8.60
2023-04-10T17:03:20.515Z,7.20
2023-04-10T17:05:47.994Z,11.50
2023-04-10T17:08:15.666Z,8.43
2023-04-10T17:10:44.622Z,8.13
2023-04-10T17:13:12.130Z,7.03
2023-04-10T17:15:39.651Z,7.13
2023-04-10T17:18:07.242Z,10.20
2023-04-10T17:20:36.499Z,9.83
2023-04-10T17:23:04.053Z,8.40
2023-04-10T17:25:31.631Z,9.13
2023-04-10T17:28:00.530Z,8.00
2023-04-10T17:30:28.328Z,8.60
2023-04-10T17:32:55.953Z,9.10
2023-04-10T17:35:23.886Z,7.77
2023-04-10T17:37:51.411Z,7.83
2023-04-10T17:40:19.346Z,9.50
2023-04-10T17:42:47.135Z,15.47
2023-04-10T17:45:16.291Z,8.73
2023-04-10T17:47:43.920Z,8.43
2023-04-10T17:50:11.938Z,9.30
2023-04-10T17:52:39.470Z,9.50
2023-04-10T17:55:08.254Z,11.03
2023-04-10T17:57:35.840Z,9.07
2023-04-10T18:00:04.059Z,8.27
2023-04-10T18:02:34.064Z,8.77
2023-04-10T18:05:03.421Z,8.90
2023-04-10T18:07:31.197Z,11.63
2023-04-10T18:09:58.841Z,8.03
2023-04-10T18:12:26.355Z,9.90
2023-04-10T18:14:53.962Z,9.97
2023-04-10T18:17:21.524Z,9.20
2023-04-10T18:19:50.989Z,8.93
2023-04-10T18:22:18.694Z,9.60
2023-04-10T18:24:47.185Z,18.83
2023-04-10T18:27:14.880Z,11.73
2023-04-10T18:29:43.345Z,10.27
2023-04-10T18:32:10.847Z,12.30
2023-04-10T18:34:38.339Z,9.40
2023-04-10T18:37:09.576Z,9.00
2023-04-10T18:39:38.206Z,10.87
2023-04-10T18:42:10.655Z,12.03
2023-04-10T18:44:38.324Z,11.97
2023-04-10T18:47:06.159Z,12.70
2023-04-10T18:49:33.767Z,9.70
2023-04-10T18:52:01.721Z,12.93
2023-04-10T18:54:31.859Z,10.37
2023-04-10T18:56:59.564Z,9.83
2023-04-10T18:59:31.995Z,11.10
2023-04-10T19:01:59.636Z,8.80
2023-04-10T19:04:27.393Z,10.13
2023-04-10T19:06:55.012Z,11.83
2023-04-10T19:09:22.561Z,10.80
2023-04-10T19:11:51.606Z,11.40
2023-04-10T19:14:19.249Z,10.23
2023-04-10T19:16:46.829Z,10.50
2023-04-10T19:19:14.304Z,10.30
2023-04-10T19:21:41.776Z,11.33
2023-04-10T19:24:09.316Z,9.27
2023-04-10T19:26:37.767Z,14.87
2023-04-10T19:29:08.812Z,15.33
2023-04-10T19:31:36.336Z,11.60
2023-04-10T19:34:09.004Z,9.57
2023-04-10T19:36:37.272Z,9.90
2023-04-10T19:39:05.495Z,10.63
2023-04-10T19:41:32.985Z,11.10
2023-04-10T19:44:00.675Z,9.27
2023-04-10T19:46:29.672Z,12.63
2023-04-10T19:48:57.210Z,12.53
2023-04-10T19:51:24.772Z,11.90
2023-04-10T19:53:52.604Z,11.10
2023-04-10T19:56:21.024Z,11.30
2023-04-10T19:58:48.625Z,9.40
2023-04-10T20:01:16.220Z,10.93
2023-04-10T20:03:45.409Z,12.90
2023-04-10T20:06:13.067Z,9.83
2023-04-10T20:08:40.705Z,9.83
2023-04-10T20:11:09.346Z,9.20
2023-04-10T20:13:36.909Z,10.83
2023-04-10T20:16:04.645Z,13.03
2023-04-10T20:18:32.818Z,10.63
2023-04-10T20:21:01.701Z,11.13
2023-04-10T20:23:29.598Z,10.00
2023-04-10T20:25:57.097Z,10.90
2023-04-10T20:28:26.250Z,10.80
2023-04-10T20:30:53.789Z,14.00
2023-04-10T20:33:21.318Z,11.43
2023-04-10T20:35:48.922Z,8.83
2023-04-10T20:38:18.703Z,13.93
2023-04-10T20:40:46.342Z,11.50
2023-04-10T20:43:14.122Z,9.47
2023-04-10T20:45:42.174Z,12.57
2023-04-10T20:48:09.865Z,11.13
2023-04-10T20:50:37.883Z,9.10
2023-04-10T20:53:05.426Z,12.00
2023-04-10T20:55:34.910Z,8.20
2023-04-10T20:58:02.417Z,10.57
2023-04-10T21:00:30.859Z,9.97
2023-04-10T21:02:58.729Z,8.10
2023-04-10T21:05:26.461Z,8.33
2023-04-10T21:07:54.252Z,10.63
2023-04-10T21:10:22.175Z,10.90
2023-04-10T21:12:51.018Z,9.90
2023-04-10T21:15:18.745Z,9.50
2023-04-10T21:17:46.312Z,8.57
2023-04-10T21:20:14.084Z,9.67
2023-04-10T21:22:41.589Z,9.10
2023-04-10T21:25:10.376Z,8.67
2023-04-10T21:27:37.893Z,8.80
2023-04-10T21:30:08.303Z,10.87
2023-04-10T21:32:35.807Z,9.10
2023-04-10T21:35:03.375Z,7.83
2023-04-10T21:37:30.918Z,10.13
2023-04-10T21:39:58.586Z,7.10
2023-04-10T21:42:26.182Z,9.80
2023-04-10T21:44:54.438Z,9.63
2023-04-10T21:47:23.363Z,17.63
2023-04-10T21:49:51.651Z,13.97
2023-04-10T21:52:19.109Z,8.00
2023-04-10T21:54:46.638Z,8.30
2023-04-10T21:57:14.225Z,5.80
2023-04-10T21:59:41.733Z,7.90
2023-04-10T22:02:10.672Z,8.73
2023-04-10T22:04:47.925Z,7.03
2023-04-10T22:07:21.461Z,6.30
2023-04-10T22:09:49.012Z,7.63
2023-04-10T22:12:16.656Z,6.50
2023-04-10T22:14:44.183Z,6.10
2023-04-10T22:17:11.899Z,5.43
2023-04-10T22:19:41.004Z,6.60
2023-04-10T22:22:08.750Z,6.20
2023-04-10T22:24:36.263Z,11.60
2023-04-10T22:27:03.860Z,9.73
2023-04-10T22:29:31.477Z,5.87
2023-04-10T22:31:58.980Z,4.93
2023-04-10T22:34:26.512Z,5.90
2023-04-10T22:36:55.376Z,4.93
2023-04-10T22:39:22.854Z,5.83
2023-04-10T22:41:50.553Z,5.20
2023-04-10T22:44:18.210Z,6.50
2023-04-10T22:46:48.118Z,6.40
2023-04-10T22:49:17.018Z,5.00
2023-04-10T22:51:45.940Z,7.13
2023-04-10T22:54:16.086Z,8.13
2023-04-10T22:56:44.148Z,6.03
2023-04-10T22:59:12.051Z,6.23
2023-04-10T23:01:41.626Z,6.40
2023-04-10T23:04:09.529Z,6.30
2023-04-10T23:06:37.438Z,7.10
2023-04-10T23:09:05.262Z,10.43
2023-04-10T23:11:37.152Z,6.27
2023-04-10T23:14:04.900Z,7.30
2023-04-10T23:16:32.917Z,7.97
2023-04-10T23:19:03.534Z,6.93
2023-04-10T23:21:32.534Z,7.30
2023-04-10T23:24:00.397Z,5.47
2023-04-10T23:26:31.008Z,10.03
2023-04-10T23:29:00.395Z,6.97
2023-04-10T23:31:28.041Z,6.13
2023-04-10T23:33:55.773Z,10.03
2023-04-10T23:36:23.617Z,8.23
2023-04-10T23:38:51.539Z,10.93
2023-04-10T23:41:22.390Z,7.70
2023-04-10T23:43:49.992Z,8.10
2023-04-10T23:46:19.082Z,7.27
2023-04-10T23:48:47.737Z,8.20
2023-04-10T23:51:15.436Z,7.30
2023-04-10T23:53:43.299Z,7.67
2023-04-10T23:56:11.402Z,7.87
2023-04-10T23:58:38.988Z,8.40
